Markham, Canada
Current Conditions -  °F | °C
As of 12:00 PM on Thursday 30 Oct 2014 (Local Time) from CYKZ Reporting Station
Broken Clouds Broken Clouds  
Wind Chill: 42°   Ceiling: 2000
Heat Index: 45°   Visibility: 15mi
Dew Point: 34°   Wind: 5mph
Humidity: 66%   Direction: 270°W
Pressure: 30.08"   Gusts: NA
Location:  43.86°N, 79.34°W
Report Text: CYKZ 301600Z 27004KT 15SM BKN020 07/01 A3008 RMK SC6 SLP191
Loading
Personal Weather Stations






























Interactive Weather Map New forecast layout! Learn more

10-Day Weather Forecast

Advertisements
Track Severe Weather on mobile